Time;durP1;ratioP1;P1;durP2;ratioP2;P2;SDS_P1;SDS_P2;PMS_P1;PMS_P2;Temp;Humidity;BMP_temperature;BMP_pressure;BME280_temperature;BME280_humidity;BME280_pressure;Samples;Min_cycle;Max_cycle;Signal;HPM_P1;HPM_P2
2023/07/12 00:00:26;;;;;;;9.50;8.47;;;24.70;99.90;;;;;;5033000;28;20453;-66
2023/07/12 00:02:52;;;;;;;8.50;6.57;;;24.60;99.90;;;;;;5033564;28;20414;-66
2023/07/12 00:05:18;;;;;;;7.50;6.90;;;24.60;99.90;;;;;;5015943;28;20884;-66
2023/07/12 00:07:45;;;;;;;8.30;7.60;;;24.60;99.90;;;;;;5016349;28;20175;-66
2023/07/12 00:10:21;;;;;;;8.00;7.00;;;24.60;99.90;;;;;;5016744;28;20480;-66
2023/07/12 00:12:48;;;;;;;7.23;6.53;;;24.70;99.90;;;;;;5035230;28;20868;-66
2023/07/12 00:15:21;;;;;;;6.87;6.37;;;24.70;99.90;;;;;;5027850;28;20468;-66
2023/07/12 00:17:47;;;;;;;7.50;6.80;;;24.70;99.90;;;;;;5014718;28;20445;-66
2023/07/12 00:20:26;;;;;;;7.83;7.20;;;24.70;99.90;;;;;;5014552;28;20507;-66
2023/07/12 00:22:53;;;;;;;7.40;6.80;;;24.70;99.90;;;;;;5006135;28;20428;-66
2023/07/12 00:25:21;;;;;;;9.70;7.20;;;24.70;99.90;;;;;;5004760;28;20484;-66
2023/07/12 00:27:47;;;;;;;7.40;6.70;;;24.70;99.90;;;;;;5013199;28;20422;-66
2023/07/12 00:30:15;;;;;;;7.03;6.43;;;24.70;99.90;;;;;;5011147;28;20430;-66
2023/07/12 00:32:41;;;;;;;7.40;6.67;;;24.70;99.90;;;;;;5026984;28;20453;-66
2023/07/12 00:35:11;;;;;;;7.63;6.83;;;24.70;99.90;;;;;;5032713;28;20827;-65
2023/07/12 00:37:37;;;;;;;6.73;6.17;;;24.70;99.90;;;;;;5023878;28;20507;-66
2023/07/12 00:40:30;;;;;;;7.10;6.50;;;24.70;99.90;;;;;;5018492;28;20549;-66
2023/07/12 00:43:22;;;;;;;7.07;6.53;;;24.70;99.90;;;;;;5017729;28;20236;-66
2023/07/12 00:45:50;;;;;;;8.47;7.50;;;24.70;99.90;;;;;;5019371;28;20995;-66
2023/07/12 00:48:16;;;;;;;6.30;5.80;;;24.70;99.90;;;;;;5030651;28;20433;-66
2023/07/12 00:50:42;;;;;;;6.50;5.97;;;24.60;99.90;;;;;;5031328;28;20427;-65
2023/07/12 00:53:19;;;;;;;7.13;6.53;;;24.60;99.90;;;;;;5019424;28;20171;-66
2023/07/12 00:56:01;;;;;;;5.43;5.00;;;24.60;99.90;;;;;;5013691;28;20422;-66
2023/07/12 00:58:39;;;;;;;5.00;4.60;;;24.60;99.90;;;;;;5019482;28;20433;-67
2023/07/12 01:01:06;;;;;;;5.07;4.50;;;24.60;99.90;;;;;;5021698;28;20795;-65
2023/07/12 01:03:37;;;;;;;4.77;4.47;;;24.60;99.90;;;;;;5028339;28;20782;-66
2023/07/12 01:06:05;;;;;;;5.10;4.63;;;24.60;99.90;;;;;;5012189;28;20421;-66
2023/07/12 01:08:31;;;;;;;5.03;4.63;;;24.50;99.90;;;;;;5014362;28;20445;-66
2023/07/12 01:11:01;;;;;;;5.23;4.87;;;24.50;99.90;;;;;;5005992;28;20426;-66
2023/07/12 01:13:28;;;;;;;4.73;4.43;;;24.50;99.90;;;;;;4994699;28;20411;-66
2023/07/12 01:15:53;;;;;;;3.93;3.67;;;24.40;99.90;;;;;;5013740;28;20814;-66
2023/07/12 01:18:19;;;;;;;5.13;4.53;;;24.40;99.90;;;;;;5033257;28;20440;-66
2023/07/12 01:20:46;;;;;;;4.50;4.20;;;24.40;99.90;;;;;;5033872;28;20620;-66
2023/07/12 01:23:11;;;;;;;4.50;4.20;;;24.30;99.90;;;;;;5031896;28;20790;-66
2023/07/12 01:25:43;;;;;;;4.47;4.07;;;24.30;99.90;;;;;;5033201;28;20421;-66
2023/07/12 01:28:10;;;;;;;4.00;3.80;;;24.30;99.90;;;;;;5033182;28;20240;-66
2023/07/12 01:30:37;;;;;;;4.03;3.83;;;24.20;99.90;;;;;;5033916;28;20413;-66
2023/07/12 01:33:03;;;;;;;5.00;4.63;;;24.20;99.90;;;;;;5033038;28;20467;-65
2023/07/12 01:35:30;;;;;;;4.40;4.00;;;24.20;99.90;;;;;;5033472;28;20609;-66
2023/07/12 01:37:56;;;;;;;4.00;3.70;;;24.10;99.90;;;;;;5033543;28;20436;-66
2023/07/12 01:40:22;;;;;;;4.20;3.90;;;24.10;99.90;;;;;;5032553;28;20445;-66
2023/07/12 01:42:48;;;;;;;4.53;4.33;;;24.10;99.90;;;;;;5033614;28;20182;-66
2023/07/12 01:45:13;;;;;;;4.30;4.00;;;24.10;99.90;;;;;;5031171;28;20428;-66
2023/07/12 01:47:39;;;;;;;4.07;3.80;;;24.10;99.90;;;;;;5032807;28;20190;-66
2023/07/12 01:50:05;;;;;;;4.33;4.03;;;24.10;99.90;;;;;;5032386;28;20179;-66
2023/07/12 01:52:31;;;;;;;4.30;4.10;;;24.10;99.90;;;;;;5021604;28;20181;-66
2023/07/12 01:54:57;;;;;;;4.30;3.90;;;24.10;99.90;;;;;;5033098;28;20512;-66
2023/07/12 01:57:23;;;;;;;3.90;3.63;;;24.10;99.90;;;;;;5032275;28;20167;-66
2023/07/12 01:59:49;;;;;;;4.13;3.83;;;24.10;99.90;;;;;;5033113;28;20942;-66
2023/07/12 02:02:14;;;;;;;3.70;3.50;;;24.10;99.90;;;;;;5032159;28;20512;-66
2023/07/12 02:04:41;;;;;;;3.53;3.33;;;24.00;99.90;;;;;;5033192;28;20178;-66
2023/07/12 02:07:07;;;;;;;4.83;3.60;;;24.00;99.90;;;;;;5032487;28;20224;-65
2023/07/12 02:09:35;;;;;;;4.37;3.97;;;24.00;99.90;;;;;;5015345;28;20919;-66
2023/07/12 02:12:02;;;;;;;4.00;3.80;;;23.90;99.90;;;;;;5032614;28;20413;-66
2023/07/12 02:14:28;;;;;;;4.90;4.50;;;23.90;99.90;;;;;;5031283;28;20468;-66
2023/07/12 02:16:53;;;;;;;4.13;3.83;;;23.90;99.90;;;;;;5052854;28;20511;-66
2023/07/12 02:19:20;;;;;;;4.47;4.17;;;23.80;99.90;;;;;;5048496;28;20268;-66
2023/07/12 02:21:46;;;;;;;3.67;3.33;;;23.70;99.90;;;;;;5032871;28;20193;-66
2023/07/12 02:24:11;;;;;;;3.50;3.20;;;23.70;99.90;;;;;;5031741;28;20508;-66
2023/07/12 02:26:39;;;;;;;4.03;3.80;;;23.60;99.90;;;;;;5032682;28;20182;-66
2023/07/12 02:29:05;;;;;;;3.23;3.13;;;23.60;99.90;;;;;;5031721;28;20544;-66
2023/07/12 02:31:31;;;;;;;3.60;3.40;;;23.50;99.90;;;;;;5032112;28;20425;-66
2023/07/12 02:33:57;;;;;;;4.43;3.70;;;23.50;99.90;;;;;;5032972;28;20174;-66
2023/07/12 02:36:23;;;;;;;3.50;3.30;;;23.40;99.90;;;;;;5032063;28;20413;-66
2023/07/12 02:38:49;;;;;;;3.70;3.50;;;23.40;99.90;;;;;;5032577;28;20572;-66
2023/07/12 02:41:18;;;;;;;3.40;3.20;;;23.30;99.90;;;;;;5032016;28;20405;-66
2023/07/12 02:43:46;;;;;;;3.83;3.50;;;23.20;99.90;;;;;;5035961;28;20208;-66
2023/07/12 02:46:11;;;;;;;3.80;3.50;;;23.20;99.90;;;;;;5052000;28;20408;-66
2023/07/12 02:48:37;;;;;;;3.40;3.20;;;23.20;99.90;;;;;;5052366;28;20431;-66
2023/07/12 02:51:03;;;;;;;3.20;3.00;;;23.20;99.90;;;;;;5033391;28;20297;-66
2023/07/12 02:53:30;;;;;;;3.80;3.50;;;23.10;99.90;;;;;;5032209;28;20409;-66
2023/07/12 02:55:56;;;;;;;3.70;3.50;;;23.10;99.90;;;;;;5032495;28;20905;-66
2023/07/12 02:58:22;;;;;;;4.00;3.70;;;23.10;99.90;;;;;;5031831;28;20459;-66
2023/07/12 03:00:48;;;;;;;3.50;3.23;;;23.10;99.90;;;;;;5032319;28;20214;-65
2023/07/12 03:03:14;;;;;;;4.00;3.70;;;23.00;99.90;;;;;;5042621;28;20424;-66
2023/07/12 03:05:40;;;;;;;3.83;3.53;;;23.00;99.90;;;;;;5051057;28;20181;-65
2023/07/12 03:08:07;;;;;;;4.17;3.87;;;23.00;99.90;;;;;;5051815;28;20413;-64
2023/07/12 03:10:35;;;;;;;3.73;3.43;;;23.00;99.90;;;;;;5052219;28;20451;-66
2023/07/12 03:13:01;;;;;;;3.83;3.53;;;22.90;99.90;;;;;;5052184;28;20450;-66
2023/07/12 03:15:26;;;;;;;3.93;3.73;;;22.90;99.90;;;;;;5051289;28;20487;-66
2023/07/12 03:17:52;;;;;;;4.80;4.30;;;22.80;99.90;;;;;;5041884;28;20695;-66
2023/07/12 03:20:18;;;;;;;3.97;3.67;;;22.80;99.90;;;;;;5044717;28;20297;-66
2023/07/12 03:22:44;;;;;;;4.00;3.70;;;22.80;99.90;;;;;;5052084;28;20170;-66
2023/07/12 03:25:09;;;;;;;3.90;3.70;;;22.90;99.90;;;;;;5051431;28;20530;-66
2023/07/12 03:27:36;;;;;;;3.40;3.20;;;22.80;99.90;;;;;;5054935;28;20178;-66
2023/07/12 03:30:02;;;;;;;5.27;4.17;;;22.80;99.90;;;;;;5055912;28;20204;-66
2023/07/12 03:32:28;;;;;;;4.00;3.70;;;22.80;99.90;;;;;;5053306;28;20904;-66
2023/07/12 03:34:55;;;;;;;4.03;3.83;;;22.70;99.90;;;;;;5055791;28;20228;-66
2023/07/12 03:37:21;;;;;;;4.77;4.20;;;22.60;99.90;;;;;;5046545;28;20221;-66
2023/07/12 03:39:46;;;;;;;4.67;4.30;;;22.50;99.90;;;;;;5035312;28;20477;-66
2023/07/12 03:42:12;;;;;;;4.60;4.00;;;22.40;99.90;;;;;;5034793;28;20213;-66
2023/07/12 03:44:38;;;;;;;5.30;5.00;;;22.40;99.90;;;;;;5035534;28;20189;-66
2023/07/12 03:47:03;;;;;;;3.97;3.67;;;22.40;99.90;;;;;;5035148;28;20545;-66
2023/07/12 03:49:29;;;;;;;3.90;3.40;;;22.40;99.90;;;;;;5034921;28;20186;-66
2023/07/12 03:51:55;;;;;;;6.50;6.10;;;22.40;99.90;;;;;;5035269;28;20184;-66
2023/07/12 03:54:21;;;;;;;5.13;4.73;;;22.40;99.90;;;;;;5048177;28;20193;-66
2023/07/12 03:56:47;;;;;;;4.80;3.93;;;22.40;99.90;;;;;;5055465;28;20174;-66
2023/07/12 03:59:13;;;;;;;4.20;3.90;;;22.40;99.90;;;;;;5054704;28;20521;-66
2023/07/12 04:01:39;;;;;;;6.23;5.83;;;22.40;99.90;;;;;;5055336;28;20411;-66
2023/07/12 04:04:05;;;;;;;4.40;4.10;;;22.30;99.90;;;;;;5055638;28;20734;-66
2023/07/12 04:06:32;;;;;;;4.00;3.80;;;22.30;99.90;;;;;;5039708;28;20182;-65
2023/07/12 04:08:58;;;;;;;6.10;5.70;;;22.20;99.90;;;;;;5017445;28;20893;-65
2023/07/12 04:11:29;;;;;;;4.10;3.80;;;22.20;99.90;;;;;;5016956;28;20417;-65
2023/07/12 04:13:56;;;;;;;4.20;4.00;;;22.20;99.90;;;;;;5034951;28;20409;-66
2023/07/12 04:16:24;;;;;;;5.13;4.73;;;22.20;99.90;;;;;;5034638;28;20474;-65
2023/07/12 04:18:51;;;;;;;5.50;5.20;;;22.20;99.90;;;;;;5017405;28;20479;-66
2023/07/12 04:21:16;;;;;;;4.10;3.70;;;22.20;99.90;;;;;;5032760;28;20425;-65
2023/07/12 04:23:42;;;;;;;3.23;3.03;;;22.20;99.90;;;;;;5024774;28;20430;-66
2023/07/12 04:26:10;;;;;;;3.20;2.90;;;22.20;99.90;;;;;;5021207;28;20171;-65
2023/07/12 04:28:39;;;;;;;3.80;3.13;;;22.20;99.90;;;;;;5020727;28;20539;-66
2023/07/12 04:31:09;;;;;;;5.77;5.37;;;22.20;99.90;;;;;;5013768;28;20418;-66
2023/07/12 04:33:34;;;;;;;3.67;3.47;;;22.10;99.90;;;;;;4999443;28;20492;-66
2023/07/12 04:36:05;;;;;;;3.17;3.00;;;22.20;99.90;;;;;;5031318;28;20519;-65
2023/07/12 04:38:32;;;;;;;14.20;12.80;;;22.20;99.90;;;;;;5013748;28;20443;-66
2023/07/12 04:40:57;;;;;;;6.00;5.57;;;22.20;99.90;;;;;;5016713;28;20449;-65
2023/07/12 04:43:23;;;;;;;5.80;5.50;;;22.20;99.90;;;;;;5034020;28;20456;-65
2023/07/12 04:45:51;;;;;;;3.77;3.33;;;22.30;99.90;;;;;;5030056;28;20252;-65
2023/07/12 04:48:18;;;;;;;3.50;3.20;;;22.30;99.90;;;;;;5014101;28;20185;-65
2023/07/12 04:50:44;;;;;;;6.97;6.57;;;22.30;99.90;;;;;;5014717;28;20445;-66
2023/07/12 04:53:12;;;;;;;3.80;3.70;;;22.40;99.90;;;;;;5013485;28;20430;-66
2023/07/12 04:55:37;;;;;;;3.57;3.37;;;22.30;99.90;;;;;;5014507;28;20414;-66
2023/07/12 04:58:03;;;;;;;6.37;5.77;;;22.20;99.90;;;;;;5014196;28;20406;-66
2023/07/12 05:00:29;;;;;;;4.37;4.17;;;22.00;99.90;;;;;;5013260;28;20238;-66
2023/07/12 05:02:54;;;;;;;3.50;3.30;;;21.90;99.90;;;;;;5033961;28;20182;-66
2023/07/12 05:05:21;;;;;;;2.83;2.70;;;21.90;99.90;;;;;;5033640;28;20176;-66
2023/07/12 05:07:48;;;;;;;4.17;3.93;;;21.90;99.90;;;;;;5034173;28;20212;-66
2023/07/12 05:10:14;;;;;;;5.47;4.97;;;21.90;99.90;;;;;;5027048;28;20422;-66
2023/07/12 05:12:41;;;;;;;4.37;4.17;;;22.00;99.90;;;;;;5014386;28;20415;-66
2023/07/12 05:15:08;;;;;;;3.60;3.40;;;22.00;99.90;;;;;;5019376;28;20801;-66
2023/07/12 05:17:35;;;;;;;3.57;3.37;;;22.00;99.90;;;;;;5015597;28;20986;-66
2023/07/12 05:20:03;;;;;;;4.17;3.97;;;22.10;99.90;;;;;;5033417;28;20551;-66
2023/07/12 05:22:29;;;;;;;3.33;3.13;;;22.00;99.90;;;;;;5032146;28;20954;-65
2023/07/12 05:24:56;;;;;;;4.50;4.13;;;22.00;99.90;;;;;;5033884;28;20417;-66
2023/07/12 05:27:22;;;;;;;3.93;3.60;;;21.90;99.90;;;;;;5032261;28;20178;-66
2023/07/12 05:29:48;;;;;;;3.97;3.67;;;21.90;99.90;;;;;;5033259;28;20487;-66
2023/07/12 05:32:14;;;;;;;3.97;3.77;;;21.90;99.90;;;;;;5033076;28;20421;-64
2023/07/12 05:34:41;;;;;;;3.10;3.00;;;21.90;99.90;;;;;;5033769;28;20514;-65
2023/07/12 05:37:08;;;;;;;4.47;4.27;;;21.90;99.90;;;;;;5045705;28;22086;-66
2023/07/12 05:39:34;;;;;;;4.30;4.10;;;21.90;99.90;;;;;;5032156;28;20548;-65
2023/07/12 05:41:59;;;;;;;4.00;3.83;;;21.90;99.90;;;;;;5033063;28;20991;-65
2023/07/12 05:44:25;;;;;;;3.47;3.17;;;21.80;99.90;;;;;;5032779;28;20174;-66
2023/07/12 05:46:51;;;;;;;4.27;4.07;;;21.80;99.90;;;;;;5042904;28;20204;-66
2023/07/12 05:49:17;;;;;;;3.93;3.73;;;21.70;99.90;;;;;;5036640;28;20182;-65
2023/07/12 05:51:43;;;;;;;3.03;2.80;;;21.70;99.90;;;;;;5033355;28;20769;-66
2023/07/12 05:54:09;;;;;;;2.53;2.40;;;21.60;99.90;;;;;;5032348;28;20182;-66
2023/07/12 05:56:34;;;;;;;2.50;2.30;;;21.70;99.90;;;;;;5032639;28;20460;-66
2023/07/12 05:59:00;;;;;;;2.20;2.10;;;21.70;99.90;;;;;;5033054;28;20174;-67
2023/07/12 06:01:26;;;;;;;3.93;3.63;;;21.80;99.90;;;;;;5016862;28;20618;-67
2023/07/12 06:03:53;;;;;;;3.60;3.40;;;21.80;99.90;;;;;;5041673;28;20646;-68
2023/07/12 06:06:19;;;;;;;2.90;2.80;;;21.80;99.90;;;;;;5032397;28;20176;-66
2023/07/12 06:08:44;;;;;;;3.40;3.20;;;21.80;99.90;;;;;;5032886;28;20427;-64
2023/07/12 06:11:11;;;;;;;2.77;2.60;;;21.80;99.90;;;;;;5033122;28;20397;-72
2023/07/12 06:13:36;;;;;;;3.27;2.77;;;21.90;99.90;;;;;;5036913;28;20455;-68
2023/07/12 06:16:04;;;;;;;3.47;3.37;;;22.00;99.90;;;;;;5022257;28;20458;-66
2023/07/12 06:18:30;;;;;;;3.17;2.97;;;21.90;99.90;;;;;;5011019;28;20242;-66
2023/07/12 06:20:59;;;;;;;8.97;5.10;;;21.80;99.90;;;;;;5012757;28;20454;-66
2023/07/12 06:23:26;;;;;;;9.27;8.63;;;21.90;99.90;;;;;;5012448;28;20253;-66
2023/07/12 06:25:57;;;;;;;10.77;9.43;;;21.90;99.90;;;;;;5011558;28;20433;-66
2023/07/12 06:28:23;;;;;;;2.93;2.83;;;21.90;99.90;;;;;;5007853;28;20468;-66
2023/07/12 06:30:49;;;;;;;8.80;8.03;;;21.90;99.90;;;;;;5012542;28;20409;-65
2023/07/12 06:33:16;;;;;;;5.40;5.10;;;22.00;99.90;;;;;;5011419;28;20434;-73
2023/07/12 06:35:42;;;;;;;4.30;4.00;;;21.90;99.90;;;;;;5012354;28;20254;-72
2023/07/12 06:38:07;;;;;;;7.00;5.67;;;22.00;99.90;;;;;;4995378;28;20957;-74
2023/07/12 06:40:33;;;;;;;6.00;3.67;;;22.00;99.90;;;;;;5012078;28;20337;-73
2023/07/12 06:42:59;;;;;;;5.20;4.80;;;22.10;99.90;;;;;;5012886;28;20186;-73
2023/07/12 06:45:25;;;;;;;9.10;7.73;;;22.20;99.90;;;;;;5012382;28;20607;-74
2023/07/12 06:47:51;;;;;;;4.37;3.97;;;22.20;99.90;;;;;;5012449;28;20428;-72
2023/07/12 06:50:17;;;;;;;5.87;5.37;;;22.20;99.90;;;;;;5011666;28;20413;-73
2023/07/12 06:52:43;;;;;;;5.13;4.57;;;22.20;99.90;;;;;;5011986;28;20179;-71
2023/07/12 06:55:09;;;;;;;3.97;3.57;;;22.30;99.90;;;;;;5012141;28;20495;-69
2023/07/12 06:57:35;;;;;;;3.23;3.03;;;22.20;99.90;;;;;;5011801;28;20586;-68
2023/07/12 07:00:06;;;;;;;2.60;2.50;;;22.20;99.90;;;;;;5012312;28;20869;-65
2023/07/12 07:02:33;;;;;;;3.10;2.90;;;22.30;99.90;;;;;;4995730;28;20418;-65
2023/07/12 07:04:59;;;;;;;5.10;2.77;;;22.30;99.90;;;;;;5016357;28;20906;-65
2023/07/12 07:07:25;;;;;;;3.03;2.60;;;22.20;99.90;;;;;;5015533;28;20422;-65
2023/07/12 07:09:50;;;;;;;2.60;2.50;;;22.00;99.90;;;;;;5015361;28;20479;-65
2023/07/12 07:12:16;;;;;;;3.00;2.90;;;22.00;99.90;;;;;;5015532;28;20426;-66
2023/07/12 07:14:42;;;;;;;4.00;3.83;;;21.90;99.90;;;;;;5016847;28;20171;-64
2023/07/12 07:17:08;;;;;;;2.67;2.53;;;21.90;99.90;;;;;;5035637;28;20510;-65
2023/07/12 07:19:34;;;;;;;2.40;2.20;;;21.90;99.90;;;;;;5035129;28;20206;-65
2023/07/12 07:22:00;;;;;;;3.20;3.10;;;21.90;99.90;;;;;;5033957;28;20432;-64
2023/07/12 07:24:26;;;;;;;2.87;2.67;;;21.90;99.90;;;;;;5034418;28;20185;-65
2023/07/12 07:26:52;;;;;;;3.10;2.90;;;21.90;99.90;;;;;;5034607;28;20182;-65
2023/07/12 07:29:17;;;;;;;3.37;3.10;;;22.00;99.90;;;;;;5034608;28;20417;-64
2023/07/12 07:31:43;;;;;;;3.40;3.10;;;22.20;99.90;;;;;;5033253;28;20179;-64
2023/07/12 07:34:09;;;;;;;24.87;13.77;;;22.20;99.90;;;;;;5034697;28;20174;-67
2023/07/12 07:36:35;;;;;;;6.80;6.10;;;22.30;99.90;;;;;;5034617;28;20435;-66
2023/07/12 07:39:01;;;;;;;22.67;19.43;;;22.30;99.90;;;;;;5022308;28;20178;-66
2023/07/12 07:41:27;;;;;;;29.73;26.53;;;22.50;99.90;;;;;;5041198;28;20182;-67
2023/07/12 07:43:53;;;;;;;14.53;12.37;;;22.60;99.90;;;;;;5041383;28;20424;-66
2023/07/12 07:46:19;;;;;;;22.57;19.10;;;22.70;99.90;;;;;;5046418;28;20469;-66
2023/07/12 07:48:45;;;;;;;16.03;14.30;;;22.80;99.90;;;;;;5041133;28;20416;-66
2023/07/12 07:51:13;;;;;;;15.77;14.27;;;22.90;99.90;;;;;;5041210;28;20618;-66
2023/07/12 07:53:39;;;;;;;11.87;10.67;;;22.90;99.90;;;;;;5046130;28;20400;-66
2023/07/12 07:56:04;;;;;;;10.77;9.70;;;23.00;99.90;;;;;;5044452;28;20416;-66
2023/07/12 07:58:30;;;;;;;13.30;10.47;;;23.00;99.90;;;;;;5028426;28;20432;-67
2023/07/12 08:00:56;;;;;;;3.57;3.30;;;23.00;99.90;;;;;;5044086;28;20279;-66
2023/07/12 08:03:22;;;;;;;4.20;3.90;;;23.10;99.90;;;;;;5045158;28;20319;-67
2023/07/12 08:05:48;;;;;;;3.60;3.30;;;23.20;99.90;;;;;;5042667;28;20246;-67
2023/07/12 08:08:14;;;;;;;7.10;6.40;;;23.30;99.90;;;;;;5045229;28;20182;-70
2023/07/12 08:10:39;;;;;;;5.67;5.17;;;23.20;99.90;;;;;;5042876;28;20775;-66
2023/07/12 08:13:05;;;;;;;4.20;3.83;;;23.30;99.90;;;;;;5042235;28;20504;-66
2023/07/12 08:15:31;;;;;;;5.50;5.10;;;23.40;98.40;;;;;;5030255;28;20225;-66
2023/07/12 08:17:57;;;;;;;4.20;3.80;;;23.50;99.30;;;;;;5014964;28;20425;-65
2023/07/12 08:20:24;;;;;;;5.80;5.30;;;23.60;98.40;;;;;;5014817;28;20450;-65
2023/07/12 08:22:51;;;;;;;4.50;4.20;;;23.60;98.80;;;;;;5014786;28;20576;-65
2023/07/12 08:25:17;;;;;;;3.63;3.17;;;23.60;97.20;;;;;;5015055;28;20771;-65
2023/07/12 08:27:43;;;;;;;3.30;3.10;;;23.50;96.50;;;;;;5014507;28;20395;-65
2023/07/12 08:30:09;;;;;;;3.70;3.40;;;23.50;95.60;;;;;;5015116;28;20709;-65
2023/07/12 08:32:35;;;;;;;3.40;3.20;;;23.60;95.80;;;;;;5014465;28;20197;-65
2023/07/12 08:35:01;;;;;;;3.40;3.20;;;23.60;94.30;;;;;;5014993;28;20873;-65
2023/07/12 08:37:28;;;;;;;3.00;2.70;;;23.60;94.60;;;;;;5014493;28;20579;-66
2023/07/12 08:39:54;;;;;;;2.70;2.60;;;23.60;96.50;;;;;;5014816;28;20462;-65
2023/07/12 08:42:38;;;;;;;4.10;3.90;;;23.60;94.50;;;;;;5013537;28;20445;-65
2023/07/12 08:45:25;;;;;;;5.70;5.33;;;23.70;94.60;;;;;;5014077;28;20433;-65
2023/07/12 08:47:57;;;;;;;7.47;6.77;;;23.70;93.00;;;;;;5014789;28;20912;-65
2023/07/12 08:50:24;;;;;;;4.90;4.40;;;23.80;92.50;;;;;;5014797;28;20398;-65
2023/07/12 08:52:50;;;;;;;3.40;3.20;;;23.80;92.70;;;;;;4996565;28;20857;-65
2023/07/12 08:55:19;;;;;;;3.47;3.10;;;23.90;92.20;;;;;;5014736;28;20500;-65
2023/07/12 08:58:02;;;;;;;5.53;5.33;;;24.00;91.80;;;;;;5014012;28;20444;-65
2023/07/12 09:00:32;;;;;;;2.50;2.40;;;24.00;92.00;;;;;;5013890;28;20448;-66
2023/07/12 09:02:58;;;;;;;5.87;5.50;;;24.10;92.90;;;;;;5014845;28;20938;-65
2023/07/12 09:05:24;;;;;;;3.13;2.90;;;24.10;91.40;;;;;;5014477;28;20489;-65
2023/07/12 09:07:53;;;;;;;4.57;3.40;;;24.20;92.30;;;;;;5014045;28;20203;-65
2023/07/12 09:10:29;;;;;;;6.30;3.20;;;24.20;91.00;;;;;;5014165;28;20811;-65
2023/07/12 09:12:59;;;;;;;5.40;5.00;;;24.20;91.20;;;;;;5013203;28;20434;-65
2023/07/12 09:15:32;;;;;;;3.67;3.30;;;24.20;92.00;;;;;;5021781;28;20452;-65
2023/07/12 09:17:59;;;;;;;3.53;3.30;;;24.10;91.30;;;;;;5034054;28;20420;-65
2023/07/12 09:20:30;;;;;;;3.10;2.90;;;24.10;92.10;;;;;;5031764;28;20441;-65
2023/07/12 09:22:57;;;;;;;5.10;4.90;;;24.30;92.10;;;;;;5033972;28;20432;-65
2023/07/12 09:25:26;;;;;;;3.13;2.93;;;24.20;91.30;;;;;;5033921;28;20409;-65
2023/07/12 09:27:52;;;;;;;5.13;4.90;;;24.40;91.80;;;;;;5032724;28;20416;-65
2023/07/12 09:30:25;;;;;;;4.83;3.60;;;24.50;91.70;;;;;;5033398;28;20548;-65
2023/07/12 09:32:54;;;;;;;5.93;5.50;;;24.70;92.30;;;;;;5030519;28;20480;-65
2023/07/12 09:35:40;;;;;;;3.37;3.00;;;24.80;90.90;;;;;;5033720;28;20464;-65
2023/07/12 09:38:14;;;;;;;2.70;2.50;;;24.90;90.80;;;;;;5033747;28;20393;-65
2023/07/12 09:40:44;;;;;;;4.10;3.80;;;24.90;89.60;;;;;;5032956;28;20445;-65
2023/07/12 09:43:22;;;;;;;3.20;3.00;;;25.00;90.10;;;;;;5033616;28;20421;-65
2023/07/12 09:46:17;;;;;;;4.37;3.37;;;25.10;90.50;;;;;;5032611;28;20420;-65
2023/07/12 09:49:00;;;;;;;4.57;4.17;;;25.20;91.00;;;;;;5032813;28;20737;-65
2023/07/12 09:51:33;;;;;;;4.57;4.27;;;25.30;89.00;;;;;;5031905;28;20429;-65
2023/07/12 09:54:02;;;;;;;5.10;4.83;;;25.40;90.50;;;;;;5033466;28;20412;-66
2023/07/12 09:56:44;;;;;;;3.43;3.23;;;25.50;89.00;;;;;;5033299;28;20898;-66
2023/07/12 09:59:24;;;;;;;4.17;3.77;;;25.60;89.00;;;;;;5033024;28;20418;-65
2023/07/12 10:01:50;;;;;;;3.67;3.37;;;25.70;88.90;;;;;;5032690;28;20729;-66
2023/07/12 10:04:49;;;;;;;3.20;3.00;;;25.90;89.30;;;;;;5033338;28;20505;-65
2023/07/12 10:07:27;;;;;;;3.83;3.53;;;26.00;85.50;;;;;;5033262;28;20551;-65
2023/07/12 10:09:54;;;;;;;3.60;3.20;;;25.90;85.90;;;;;;5032834;28;20766;-65
2023/07/12 10:12:48;;;;;;;3.20;3.00;;;25.80;86.70;;;;;;5031828;28;20459;-65
2023/07/12 10:15:14;;;;;;;4.07;3.67;;;25.50;84.80;;;;;;5039088;28;20456;-65
2023/07/12 10:17:43;;;;;;;3.50;3.20;;;25.30;86.80;;;;;;5052312;28;20404;-65
2023/07/12 10:20:23;;;;;;;4.53;4.23;;;25.20;88.70;;;;;;5050262;28;20214;-65
2023/07/12 10:22:51;;;;;;;3.33;3.10;;;25.10;89.30;;;;;;5052257;28;20400;-65
2023/07/12 10:25:35;;;;;;;5.80;5.50;;;25.10;87.90;;;;;;5052769;28;20401;-65
2023/07/12 10:28:01;;;;;;;4.23;3.33;;;25.00;90.10;;;;;;5052865;28;20446;-65
2023/07/12 10:30:29;;;;;;;4.93;4.63;;;24.90;90.90;;;;;;5052642;28;20789;-65
2023/07/12 10:33:17;;;;;;;3.93;3.63;;;25.00;91.60;;;;;;5052036;28;20235;-65
2023/07/12 10:35:51;;;;;;;3.70;3.40;;;25.00;91.00;;;;;;5051672;28;20393;-65
2023/07/12 10:38:23;;;;;;;3.90;2.77;;;25.30;91.00;;;;;;5052671;28;20396;-65
2023/07/12 10:40:48;;;;;;;2.10;1.80;;;25.40;89.50;;;;;;5051898;28;20486;-65
2023/07/12 10:43:31;;;;;;;2.90;2.70;;;25.50;85.30;;;;;;5052468;28;20440;-65
2023/07/12 10:46:04;;;;;;;3.47;3.27;;;25.60;85.90;;;;;;5052061;28;20181;-65
2023/07/12 10:48:31;;;;;;;3.40;3.20;;;25.60;85.40;;;;;;5052508;28;20443;-65
2023/07/12 10:51:31;;;;;;;3.90;3.60;;;25.50;85.30;;;;;;5038161;28;20932;-67
2023/07/12 10:53:57;;;;;;;4.40;3.08;;;25.40;84.70;;;;;;5031066;28;20758;-66
2023/07/12 10:56:32;;;;;;;4.00;3.70;;;25.60;85.60;;;;;;5032103;28;20181;-65
2023/07/12 10:59:02;;;;;;;3.63;3.33;;;25.80;85.60;;;;;;5024537;28;20181;-66
2023/07/12 11:01:43;;;;;;;4.37;2.70;;;25.90;84.10;;;;;;5031986;28;20819;-66
2023/07/12 11:04:33;;;;;;;3.20;3.00;;;25.90;82.90;;;;;;5030612;28;20401;-65
2023/07/12 11:07:00;;;;;;;3.47;3.17;;;26.00;82.90;;;;;;5031329;28;20913;-66
2023/07/12 11:09:48;;;;;;;3.87;3.67;;;26.10;82.20;;;;;;5031969;28;20507;-66
2023/07/12 11:12:39;;;;;;;2.60;2.40;;;26.20;84.90;;;;;;5031424;28;20424;-66
2023/07/12 11:15:27;;;;;;;2.83;2.63;;;26.20;82.60;;;;;;5015120;28;20446;-66
2023/07/12 11:18:09;;;;;;;2.70;2.50;;;26.40;81.20;;;;;;5010674;28;20410;-66
2023/07/12 11:21:02;;;;;;;3.63;3.33;;;26.60;81.90;;;;;;5010352;28;20466;-68
2023/07/12 11:23:29;;;;;;;2.80;2.70;;;26.70;79.00;;;;;;5010680;28;20485;-65
2023/07/12 11:26:01;;;;;;;2.93;2.83;;;26.90;80.10;;;;;;5010363;28;20756;-66
2023/07/12 11:28:40;;;;;;;4.20;3.53;;;27.00;77.40;;;;;;5012131;28;20444;-66
2023/07/12 11:31:26;;;;;;;3.57;3.30;;;27.20;76.40;;;;;;5010397;28;20402;-66
2023/07/12 11:33:54;;;;;;;2.83;2.63;;;27.20;76.30;;;;;;5010468;28;20867;-66
2023/07/12 11:36:26;;;;;;;3.00;2.80;;;27.10;74.00;;;;;;5009305;28;20445;-66
2023/07/12 11:38:55;;;;;;;3.20;3.00;;;26.90;74.60;;;;;;5001871;28;20778;-66
2023/07/12 11:41:25;;;;;;;2.63;2.53;;;26.80;75.30;;;;;;5009062;28;20867;-66
2023/07/12 11:44:01;;;;;;;2.97;2.77;;;26.80;76.10;;;;;;5011116;28;20410;-65
2023/07/12 11:46:30;;;;;;;5.97;2.83;;;26.80;76.70;;;;;;5010256;28;20437;-66
2023/07/12 11:49:10;;;;;;;70.30;62.57;;;26.80;75.90;;;;;;5011726;28;20421;-67
2023/07/12 11:51:39;;;;;;;18.60;16.63;;;26.60;74.50;;;;;;5013327;28;20429;-66
2023/07/12 11:54:17;;;;;;;27.00;24.80;;;26.70;78.30;;;;;;5014056;28;20479;-66
2023/07/12 11:56:44;;;;;;;6.80;5.07;;;26.80;78.80;;;;;;4998266;28;20493;-66
2023/07/12 11:59:32;;;;;;;5.20;4.80;;;27.00;79.20;;;;;;5015464;28;20929;-66
2023/07/12 12:01:58;;;;;;;4.57;4.27;;;27.10;79.10;;;;;;5015134;28;20512;-66
2023/07/12 12:04:31;;;;;;;3.50;3.30;;;27.20;78.90;;;;;;5015329;28;20816;-66
2023/07/12 12:07:20;;;;;;;5.70;5.43;;;27.30;79.00;;;;;;5013309;28;20428;-66
2023/07/12 12:09:47;;;;;;;4.80;4.70;;;27.30;73.30;;;;;;5013836;28;20416;-67
2023/07/12 12:12:19;;;;;;;4.40;4.20;;;27.40;75.10;;;;;;5014739;28;20406;-66
2023/07/12 12:14:49;;;;;;;3.00;2.80;;;27.50;74.40;;;;;;5016109;28;20414;-66
2023/07/12 12:17:17;;;;;;;3.43;3.23;;;27.50;68.60;;;;;;5032577;28;20393;-66
2023/07/12 12:19:49;;;;;;;3.03;2.83;;;27.60;68.00;;;;;;5033762;28;20515;-66
2023/07/12 12:22:18;;;;;;;4.80;4.50;;;27.50;66.00;;;;;;5032364;28;20463;-66
2023/07/12 12:24:49;;;;;;;2.50;2.30;;;27.50;67.10;;;;;;5033618;28;20896;-65
2023/07/12 12:27:27;;;;;;;3.57;3.20;;;27.60;69.30;;;;;;5032166;28;20488;-66
2023/07/12 12:29:53;;;;;;;2.50;2.30;;;27.60;67.90;;;;;;5031271;28;20416;-65
2023/07/12 12:32:21;;;;;;;5.10;4.77;;;27.50;68.10;;;;;;5034847;28;20827;-66
2023/07/12 12:34:53;;;;;;;33.10;29.80;;;27.30;67.50;;;;;;5033077;28;20198;-66
2023/07/12 12:37:27;;;;;;;27.33;24.57;;;27.20;69.40;;;;;;5032873;28;20421;-66
2023/07/12 12:40:01;;;;;;;12.80;11.63;;;27.00;70.50;;;;;;5032708;28;20546;-66
2023/07/12 12:42:28;;;;;;;4.93;4.63;;;27.10;71.10;;;;;;5032953;28;20727;-66
2023/07/12 12:44:55;;;;;;;4.67;3.90;;;27.10;70.50;;;;;;5033610;28;20463;-66
2023/07/12 12:47:23;;;;;;;3.27;2.30;;;26.90;71.50;;;;;;5035358;28;20439;-65
2023/07/12 12:49:52;;;;;;;1.80;1.70;;;26.90;72.00;;;;;;5033810;28;20919;-68
2023/07/12 12:52:34;;;;;;;4.43;4.13;;;26.90;70.50;;;;;;5016260;28;20534;-66
2023/07/12 12:55:06;;;;;;;3.03;2.80;;;26.90;73.50;;;;;;5031002;28;20413;-66